createdAt,value
2023-03-10T00:00:27.217Z,97877.16
2023-03-10T00:05:28.640Z,97872.28
2023-03-10T00:10:30.060Z,97863.41
2023-03-10T00:15:31.784Z,97861.13
2023-03-10T00:20:33.203Z,97851.75
2023-03-10T00:25:34.600Z,97851.53
2023-03-10T00:30:35.981Z,97837.88
2023-03-10T00:35:37.373Z,97845.84
2023-03-10T00:40:38.792Z,97836.84
2023-03-10T00:45:40.174Z,97814.94
2023-03-10T00:50:41.550Z,97815.44
2023-03-10T00:55:42.960Z,97801.88
2023-03-10T01:00:44.359Z,97785.53
2023-03-10T01:05:45.755Z,97782.19
2023-03-10T01:10:47.163Z,97767.13
2023-03-10T01:15:48.807Z,97764.94
2023-03-10T01:20:50.256Z,97758.44
2023-03-10T01:25:52.022Z,97732.25
2023-03-10T01:30:53.436Z,97732.84
2023-03-10T01:35:54.922Z,97722.34
2023-03-10T01:40:56.343Z,97706.16
2023-03-10T01:45:57.600Z,97700.47
2023-03-10T01:50:58.991Z,97688.84
2023-03-10T01:56:02.075Z,97689.66
2023-03-10T02:01:03.877Z,97681.47
2023-03-10T02:06:08.537Z,97676.22
2023-03-10T02:11:09.950Z,97670.16
2023-03-10T02:16:11.440Z,97667.91
2023-03-10T02:21:44.476Z,97648.19
2023-03-10T02:27:04.651Z,97625.41
2023-03-10T02:32:06.205Z,97627.34
2023-03-10T02:37:07.585Z,97633.81
2023-03-10T02:42:09.877Z,97631.38
2023-03-10T02:47:11.403Z,97614.28
2023-03-10T02:52:34.905Z,97615.41
2023-03-10T02:57:36.305Z,97605.19
2023-03-10T03:02:37.836Z,97592.53
2023-03-10T03:07:39.269Z,97587.59
2023-03-10T03:12:40.650Z,97591.22
2023-03-10T03:17:42.017Z,97573.03
2023-03-10T03:22:44.642Z,97559.25
2023-03-10T03:27:46.384Z,97566.84
2023-03-10T03:32:47.825Z,97566.84
2023-03-10T03:37:49.212Z,97545.00
2023-03-10T03:42:51.268Z,97539.13
2023-03-10T03:47:52.660Z,97527.69
2023-03-10T03:52:54.032Z,97526.78
2023-03-10T03:57:55.482Z,97516.88
2023-03-10T04:02:56.881Z,97510.91
2023-03-10T04:07:58.320Z,97505.25
2023-03-10T04:12:59.707Z,97494.91
2023-03-10T04:18:01.111Z,97488.66
2023-03-10T04:23:02.635Z,97485.78
2023-03-10T04:28:04.031Z,97491.25
2023-03-10T04:33:05.424Z,97472.78
2023-03-10T04:38:06.812Z,97467.13
2023-03-10T04:43:08.211Z,97461.66
2023-03-10T04:48:09.601Z,97466.19
2023-03-10T04:53:11.115Z,97463.34
2023-03-10T04:58:12.540Z,97460.13
2023-03-10T05:03:13.929Z,97471.28
2023-03-10T05:08:15.308Z,97462.25
2023-03-10T05:13:16.719Z,97460.44
2023-03-10T05:18:18.099Z,97455.97
2023-03-10T05:23:19.480Z,97451.91
2023-03-10T05:28:20.943Z,97454.16
2023-03-10T05:33:22.320Z,97448.19
2023-03-10T05:38:23.687Z,97439.38
2023-03-10T05:43:25.065Z,97449.19
2023-03-10T05:48:26.548Z,97449.88
2023-03-10T05:53:28.102Z,97445.56
2023-03-10T05:58:29.507Z,97430.69
2023-03-10T06:03:31.093Z,97437.28
2023-03-10T06:08:32.537Z,97435.72
2023-03-10T06:13:34.013Z,97443.81
2023-03-10T06:18:35.397Z,97433.69
2023-03-10T06:23:36.798Z,97436.34
2023-03-10T06:28:38.923Z,97428.97
2023-03-10T06:33:40.315Z,97430.47
2023-03-10T06:38:41.718Z,97428.31
2023-03-10T06:43:43.208Z,97426.06
2023-03-10T06:48:44.584Z,97436.63
2023-03-10T06:53:46.185Z,97434.78
2023-03-10T06:58:48.184Z,97432.59
2023-03-10T07:03:49.616Z,97440.16
2023-03-10T07:08:51.275Z,97446.94
2023-03-10T07:13:52.815Z,97446.63
2023-03-10T07:18:54.192Z,97440.53
2023-03-10T07:23:55.574Z,97440.88
2023-03-10T07:28:57.203Z,97444.50
2023-03-10T07:33:58.587Z,97444.44
2023-03-10T07:39:00.009Z,97446.38
2023-03-10T07:44:01.417Z,97433.72
2023-03-10T07:49:04.827Z,97438.19
2023-03-10T07:54:06.244Z,97425.56
2023-03-10T07:59:07.650Z,97421.59
2023-03-10T08:04:09.153Z,97418.22
2023-03-10T08:09:10.600Z,97424.03
2023-03-10T08:14:12.007Z,97434.94
2023-03-10T08:19:13.399Z,97436.38
2023-03-10T08:24:14.786Z,97436.47
2023-03-10T08:29:16.203Z,97439.59
2023-03-10T08:34:17.589Z,97436.25
2023-03-10T08:39:18.962Z,97423.41
2023-03-10T08:44:20.414Z,97418.84
2023-03-10T08:49:22.249Z,97431.81
2023-03-10T08:54:23.752Z,97435.38
2023-03-10T08:59:25.150Z,97442.69
2023-03-10T09:04:26.559Z,97426.19
2023-03-10T09:09:27.949Z,97452.22
2023-03-10T09:14:29.377Z,97454.16
2023-03-10T09:19:30.763Z,97463.66
2023-03-10T09:24:32.177Z,97480.34
2023-03-10T09:29:43.139Z,97477.63
2023-03-10T09:34:45.418Z,97486.69
2023-03-10T09:39:47.049Z,97475.97
2023-03-10T09:45:19.710Z,97466.19
2023-03-10T09:50:29.395Z,97468.22
2023-03-10T09:55:47.544Z,97449.97
2023-03-10T10:00:49.754Z,97449.84
2023-03-10T10:05:52.519Z,97432.84
2023-03-10T10:10:58.277Z,97451.09
2023-03-10T10:16:24.699Z,97444.50
2023-03-10T10:21:46.227Z,97439.78
2023-03-10T10:26:47.663Z,97443.41
2023-03-10T10:32:03.740Z,97449.16
2023-03-10T10:37:24.114Z,97453.97
2023-03-10T10:42:29.202Z,97454.34
2023-03-10T10:47:51.037Z,97457.75
2023-03-10T10:53:12.802Z,97449.84
2023-03-10T10:58:25.446Z,97447.50
2023-03-10T11:03:36.678Z,97462.75
2023-03-10T11:08:40.531Z,97456.19
2023-03-10T11:13:55.777Z,97458.53
2023-03-10T11:19:10.964Z,97454.41
2023-03-10T11:24:18.288Z,97450.88
2023-03-10T11:29:49.052Z,97445.75
2023-03-10T11:34:51.695Z,97439.03
2023-03-10T11:40:28.311Z,97425.84
2023-03-10T11:45:39.407Z,97410.59
2023-03-10T11:51:04.138Z,97399.28
2023-03-10T11:56:06.967Z,97396.53
2023-03-10T12:01:08.714Z,97406.09
2023-03-10T12:06:13.159Z,97394.47
2023-03-10T12:11:17.321Z,97384.53
2023-03-10T12:16:20.774Z,97385.03
2023-03-10T12:21:26.042Z,97377.00
2023-03-10T12:26:39.489Z,97373.78
2023-03-10T12:31:41.118Z,97371.69
2023-03-10T12:36:46.452Z,97368.13
2023-03-10T12:41:48.797Z,97368.75
2023-03-10T12:47:15.710Z,97364.72
2023-03-10T12:52:44.817Z,97363.00
2023-03-10T12:58:00.046Z,97364.16
2023-03-10T13:03:24.941Z,97352.22
2023-03-10T13:08:51.292Z,97346.44
2023-03-10T13:14:01.851Z,97326.78
2023-03-10T13:19:03.731Z,97318.06
2023-03-10T13:24:26.728Z,97315.09
2023-03-10T13:29:28.097Z,97310.22
2023-03-10T13:34:30.861Z,97298.66
2023-03-10T13:39:32.228Z,97304.28
2023-03-10T13:44:38.655Z,97288.88
2023-03-10T13:49:47.160Z,97290.81
2023-03-10T13:54:49.271Z,97273.81
2023-03-10T13:59:51.176Z,97272.81
2023-03-10T14:04:52.930Z,97268.03
2023-03-10T14:10:03.305Z,97272.16
2023-03-10T14:15:16.861Z,97279.56
2023-03-10T14:20:29.130Z,97282.28
2023-03-10T14:25:30.537Z,97331.38
2023-03-10T14:30:33.175Z,97339.81
2023-03-10T14:35:34.595Z,97361.84
2023-03-10T14:40:40.053Z,97371.22
2023-03-10T14:45:41.787Z,97364.06
2023-03-10T14:50:43.235Z,97360.53
2023-03-10T14:55:45.228Z,97354.59
2023-03-10T15:00:46.604Z,97346.75
2023-03-10T15:05:49.395Z,97345.28
2023-03-10T15:10:51.051Z,97354.78
2023-03-10T15:15:53.082Z,97352.25
2023-03-10T15:20:58.780Z,97343.66
2023-03-10T15:26:02.759Z,97343.19
2023-03-10T15:31:04.459Z,97341.97
2023-03-10T15:36:06.605Z,97332.81
2023-03-10T15:41:08.384Z,97330.84
2023-03-10T15:46:09.805Z,97330.78
2023-03-10T15:51:12.864Z,97324.78
2023-03-10T15:56:15.299Z,97317.78
2023-03-10T16:01:18.542Z,97324.91
2023-03-10T16:06:24.218Z,97325.78
2023-03-10T16:11:25.475Z,97323.84
2023-03-10T16:16:26.955Z,97320.47
2023-03-10T16:21:28.358Z,97316.75
2023-03-10T16:26:29.800Z,97318.06
2023-03-10T16:31:31.291Z,97326.44
2023-03-10T16:36:33.235Z,97324.09
2023-03-10T16:41:34.612Z,97321.88
2023-03-10T16:46:36.065Z,97322.16
2023-03-10T16:51:42.132Z,97330.69
2023-03-10T16:56:47.738Z,97323.13
2023-03-10T17:01:49.769Z,97310.38
2023-03-10T17:06:51.139Z,97312.19
2023-03-10T17:11:55.157Z,97304.31
2023-03-10T17:16:57.081Z,97313.66
2023-03-10T17:21:58.557Z,97327.78
2023-03-10T17:27:00.040Z,97324.00
2023-03-10T17:32:01.549Z,97327.47
2023-03-10T17:37:02.980Z,97318.97
2023-03-10T17:42:04.493Z,97323.44
2023-03-10T17:47:05.884Z,97328.09
2023-03-10T17:52:07.259Z,97312.28
2023-03-10T17:57:08.854Z,97314.31
2023-03-10T18:02:11.627Z,97314.47
2023-03-10T18:07:13.269Z,97306.00
2023-03-10T18:12:14.656Z,97307.13
2023-03-10T18:17:16.088Z,97296.19
2023-03-10T18:22:17.475Z,97299.03
2023-03-10T18:27:18.858Z,97281.00
2023-03-10T18:32:20.265Z,97272.00
2023-03-10T18:37:21.641Z,97272.03
2023-03-10T18:42:23.129Z,97268.69
2023-03-10T18:47:24.592Z,97261.25
2023-03-10T18:52:26.001Z,97252.97
2023-03-10T18:57:27.916Z,97255.19
2023-03-10T19:02:29.319Z,97255.59
2023-03-10T19:07:32.292Z,97249.50
2023-03-10T19:12:34.032Z,97238.44
2023-03-10T19:17:36.083Z,97246.06
2023-03-10T19:22:38.210Z,97240.22
2023-03-10T19:27:40.471Z,97235.28
2023-03-10T19:32:42.067Z,97240.28
2023-03-10T19:37:43.614Z,97242.75
2023-03-10T19:42:45.505Z,97238.34
2023-03-10T19:47:47.081Z,97257.13
2023-03-10T19:52:49.061Z,97245.03
2023-03-10T19:57:51.765Z,97252.47
2023-03-10T20:02:53.896Z,97253.69
2023-03-10T20:07:55.312Z,97254.16
2023-03-10T20:12:56.741Z,97255.88
2023-03-10T20:18:00.760Z,97247.47
2023-03-10T20:23:02.165Z,97248.44
2023-03-10T20:28:03.992Z,97239.78
2023-03-10T20:33:05.363Z,97251.44
2023-03-10T20:38:06.740Z,97252.88
2023-03-10T20:43:09.238Z,97249.44
2023-03-10T20:48:10.622Z,97246.66
2023-03-10T20:53:11.994Z,97247.31
2023-03-10T20:58:13.547Z,97248.81
2023-03-10T21:03:14.921Z,97256.19
2023-03-10T21:08:16.312Z,97256.94
2023-03-10T21:13:17.737Z,97252.53
2023-03-10T21:18:19.272Z,97257.09
2023-03-10T21:23:20.663Z,97241.84
2023-03-10T21:28:22.052Z,97246.06
2023-03-10T21:33:23.565Z,97245.69
2023-03-10T21:38:24.952Z,97245.78
2023-03-10T21:43:27.732Z,97253.03
2023-03-10T21:48:29.160Z,97247.75
2023-03-10T21:53:30.579Z,97250.06
2023-03-10T21:58:32.129Z,97249.06
2023-03-10T22:03:33.831Z,97254.97
2023-03-10T22:08:36.190Z,97256.69
2023-03-10T22:13:37.790Z,97252.91
2023-03-10T22:18:39.190Z,97262.91
2023-03-10T22:23:40.600Z,97266.94
2023-03-10T22:28:42.161Z,97263.66
2023-03-10T22:33:43.561Z,97271.97
2023-03-10T22:38:44.933Z,97287.13
2023-03-10T22:43:46.320Z,97287.81
2023-03-10T22:48:47.720Z,97283.25
2023-03-10T22:53:49.109Z,97301.28
2023-03-10T22:58:50.486Z,97285.63
2023-03-10T23:03:51.925Z,97287.44
2023-03-10T23:08:53.327Z,97299.66
2023-03-10T23:13:54.816Z,97303.19
2023-03-10T23:18:56.250Z,97303.00
2023-03-10T23:23:57.678Z,97311.81
2023-03-10T23:28:59.042Z,97307.66
2023-03-10T23:34:00.426Z,97343.53
2023-03-10T23:39:01.805Z,97387.25
2023-03-10T23:44:03.213Z,97416.13
2023-03-10T23:49:04.587Z,97493.22
2023-03-10T23:54:05.980Z,97466.69
2023-03-10T23:59:07.410Z,97478.13
